createdAt,value
2018-01-28T00:00:47.479Z,10.80
2018-01-28T00:02:50.160Z,12.00
2018-01-28T00:04:52.812Z,11.00
2018-01-28T00:06:55.464Z,13.27
2018-01-28T00:08:58.204Z,11.07
2018-01-28T00:11:00.964Z,12.53
2018-01-28T00:13:03.624Z,11.40
2018-01-28T00:15:07.182Z,11.60
2018-01-28T00:17:09.912Z,11.33
2018-01-28T00:19:13.353Z,11.37
2018-01-28T00:21:16.110Z,10.60
2018-01-28T00:23:18.788Z,11.67
2018-01-28T00:25:21.485Z,11.80
2018-01-28T00:27:24.135Z,11.60
2018-01-28T00:29:26.919Z,11.20
2018-01-28T00:31:29.603Z,11.47
2018-01-28T00:33:32.292Z,11.13
2018-01-28T00:35:34.962Z,11.20
2018-01-28T00:37:37.646Z,12.20
2018-01-28T00:39:40.338Z,10.80
2018-01-28T00:41:42.999Z,11.87
2018-01-28T00:43:45.679Z,10.87
2018-01-28T00:45:48.328Z,10.80
2018-01-28T00:47:51.002Z,10.27
2018-01-28T00:49:53.693Z,10.80
2018-01-28T00:51:56.348Z,11.53
2018-01-28T00:53:59.023Z,11.33
2018-01-28T00:56:01.810Z,11.40
2018-01-28T00:58:04.518Z,10.73
2018-01-28T01:00:07.160Z,11.40
2018-01-28T01:02:09.808Z,12.30
2018-01-28T01:04:13.262Z,11.07
2018-01-28T01:06:15.943Z,11.60
2018-01-28T01:08:18.620Z,11.67
2018-01-28T01:10:21.279Z,11.10
2018-01-28T01:12:23.905Z,9.93
2018-01-28T01:14:27.336Z,10.27
2018-01-28T01:16:29.971Z,9.90
2018-01-28T01:18:33.380Z,10.30
2018-01-28T01:20:36.087Z,10.33
2018-01-28T01:22:38.836Z,11.17
2018-01-28T01:24:41.479Z,11.33
2018-01-28T01:26:44.157Z,11.00
2018-01-28T01:28:46.818Z,10.20
2018-01-28T01:30:49.476Z,9.30
2018-01-28T01:32:52.150Z,10.80
2018-01-28T01:34:54.814Z,10.97
2018-01-28T01:36:57.540Z,11.20
2018-01-28T01:39:00.190Z,10.63
2018-01-28T01:41:02.829Z,10.80
2018-01-28T01:43:05.632Z,9.93
2018-01-28T01:45:08.302Z,10.43
2018-01-28T01:47:10.978Z,10.00
2018-01-28T01:49:34.604Z,10.30
2018-01-28T01:51:38.029Z,10.20
2018-01-28T01:53:41.863Z,9.83
2018-01-28T01:55:44.553Z,8.83
2018-01-28T01:57:47.215Z,7.40
2018-01-28T01:59:49.887Z,8.10
2018-01-28T02:01:52.537Z,9.07
2018-01-28T02:03:55.217Z,8.90
2018-01-28T02:05:57.882Z,8.17
2018-01-28T02:08:00.530Z,9.30
2018-01-28T02:10:04.007Z,8.50
2018-01-28T02:12:06.827Z,8.27
2018-01-28T02:14:09.476Z,8.30
2018-01-28T02:16:12.903Z,8.70
2018-01-28T02:18:15.579Z,9.57
2018-01-28T02:20:18.242Z,8.83
2018-01-28T02:22:20.952Z,8.90
2018-01-28T02:24:23.589Z,8.47
2018-01-28T02:26:26.280Z,9.53
2018-01-28T02:28:28.953Z,9.10
2018-01-28T02:30:31.615Z,9.77
2018-01-28T02:32:34.252Z,8.67
2018-01-28T02:34:36.983Z,9.13
2018-01-28T02:36:39.625Z,10.30
2018-01-28T02:38:43.107Z,8.70
2018-01-28T02:40:45.776Z,9.23
2018-01-28T02:42:48.441Z,9.10
2018-01-28T02:44:51.116Z,9.03
2018-01-28T02:46:53.775Z,10.03
2018-01-28T02:48:56.535Z,10.23
2018-01-28T02:50:59.226Z,9.00
2018-01-28T02:53:01.868Z,10.07
2018-01-28T02:55:05.290Z,9.90
2018-01-28T02:57:07.966Z,9.40
2018-01-28T02:59:10.618Z,9.70
2018-01-28T03:01:13.289Z,9.50
2018-01-28T03:03:16.796Z,9.27
2018-01-28T03:05:19.580Z,10.30
2018-01-28T03:07:22.261Z,9.93
2018-01-28T03:09:24.916Z,9.83
2018-01-28T03:11:28.634Z,11.17
2018-01-28T03:13:31.316Z,10.50
2018-01-28T03:15:33.978Z,10.47
2018-01-28T03:17:36.629Z,9.23
2018-01-28T03:19:40.074Z,10.20
2018-01-28T03:21:42.732Z,10.13
2018-01-28T03:23:45.370Z,10.23
2018-01-28T03:25:48.821Z,11.10
2018-01-28T03:27:51.470Z,9.70
2018-01-28T03:29:54.152Z,9.40
2018-01-28T03:31:56.828Z,10.30
2018-01-28T03:33:59.509Z,9.10
2018-01-28T03:36:02.217Z,10.80
2018-01-28T03:38:05.665Z,10.33
2018-01-28T03:40:08.322Z,9.80
2018-01-28T03:42:11.770Z,9.43
2018-01-28T03:44:14.421Z,9.93
2018-01-28T03:46:17.067Z,10.10
2018-01-28T03:48:20.491Z,10.60
2018-01-28T03:50:23.150Z,11.20
2018-01-28T03:52:25.792Z,10.53
2018-01-28T03:54:28.501Z,11.77
2018-01-28T03:56:31.940Z,11.57
2018-01-28T03:58:34.588Z,11.10
2018-01-28T04:00:37.288Z,11.10
2018-01-28T04:02:39.926Z,10.97
2018-01-28T04:04:42.747Z,11.50
2018-01-28T04:06:45.402Z,11.57
2018-01-28T04:08:48.056Z,12.07
2018-01-28T04:10:51.129Z,11.20
2018-01-28T04:12:54.557Z,11.87
2018-01-28T04:14:57.235Z,11.40
2018-01-28T04:16:59.894Z,11.53
2018-01-28T04:19:02.552Z,11.10
2018-01-28T04:21:06.023Z,12.30
2018-01-28T04:23:08.669Z,11.40
2018-01-28T04:25:11.327Z,10.60
2018-01-28T04:27:14.019Z,11.40
2018-01-28T04:29:16.659Z,11.00
2018-01-28T04:31:20.086Z,10.00
2018-01-28T04:33:22.778Z,11.10
2018-01-28T04:35:25.436Z,10.20
2018-01-28T04:37:28.158Z,10.00
2018-01-28T04:39:30.817Z,10.70
2018-01-28T04:41:33.474Z,10.20
2018-01-28T04:43:36.135Z,9.40
2018-01-28T04:45:38.790Z,9.60
2018-01-28T04:47:41.455Z,10.07
2018-01-28T04:49:44.878Z,10.40
2018-01-28T04:51:47.537Z,10.43
2018-01-28T04:53:50.208Z,9.73
2018-01-28T04:55:52.863Z,9.90
2018-01-28T04:57:56.303Z,10.50
2018-01-28T04:59:58.993Z,10.57
2018-01-28T05:02:01.673Z,10.33
2018-01-28T05:04:04.370Z,10.13
2018-01-28T05:06:07.062Z,10.40
2018-01-28T05:08:10.508Z,10.60
2018-01-28T05:10:13.224Z,10.40
2018-01-28T05:12:15.893Z,10.53
2018-01-28T05:14:18.547Z,11.80
2018-01-28T05:16:21.262Z,11.70
2018-01-28T05:18:24.686Z,11.13
2018-01-28T05:20:27.385Z,10.77
2018-01-28T05:22:30.049Z,12.47
2018-01-28T05:24:32.725Z,11.87
2018-01-28T05:26:35.422Z,12.03
2018-01-28T05:28:38.129Z,12.20
2018-01-28T05:30:40.828Z,12.30
2018-01-28T05:32:44.269Z,12.67
2018-01-28T05:34:46.923Z,11.27
2018-01-28T05:36:49.568Z,13.30
2018-01-28T05:38:52.987Z,12.03
2018-01-28T05:40:55.665Z,12.40
2018-01-28T05:42:58.350Z,12.07
2018-01-28T05:45:01.021Z,14.20
2018-01-28T05:47:03.662Z,15.20
2018-01-28T05:49:07.101Z,13.77
2018-01-28T05:51:10.222Z,14.07
2018-01-28T05:53:12.888Z,14.87
2018-01-28T05:55:15.532Z,14.50
2018-01-28T05:57:18.222Z,15.10
2018-01-28T05:59:20.897Z,15.97
2018-01-28T06:01:23.545Z,15.17
2018-01-28T06:03:26.216Z,15.57
2018-01-28T06:05:28.882Z,16.60
2018-01-28T06:07:32.310Z,15.87
2018-01-28T06:09:35.024Z,16.53
2018-01-28T06:11:39.175Z,16.30
2018-01-28T06:13:41.831Z,17.67
2018-01-28T06:15:45.302Z,15.53
2018-01-28T06:17:47.954Z,16.43
2018-01-28T06:19:50.741Z,17.77
2018-01-28T06:21:53.417Z,17.47
2018-01-28T06:23:56.080Z,18.93
2018-01-28T06:25:58.738Z,18.20
2018-01-28T06:28:01.425Z,17.57
2018-01-28T06:30:04.081Z,18.23
2018-01-28T06:32:06.747Z,19.43
2018-01-28T06:34:10.167Z,17.83
2018-01-28T06:36:13.448Z,21.43
2018-01-28T06:38:16.142Z,19.77
2018-01-28T06:40:18.876Z,19.60
2018-01-28T06:42:21.500Z,20.33
2018-01-28T06:44:24.160Z,21.27
2018-01-28T06:46:26.831Z,20.47
2018-01-28T06:48:29.476Z,20.77
2018-01-28T06:50:32.926Z,20.40
2018-01-28T06:52:35.559Z,19.47
2018-01-28T06:54:38.213Z,19.87
2018-01-28T06:56:41.661Z,19.30
2018-01-28T06:58:44.320Z,21.90
2018-01-28T07:00:46.964Z,19.93
2018-01-28T07:02:50.408Z,20.97
2018-01-28T07:04:53.069Z,21.40
2018-01-28T07:06:55.708Z,21.40
2018-01-28T07:08:59.128Z,21.97
2018-01-28T07:11:01.785Z,21.43
2018-01-28T07:13:05.203Z,19.87
2018-01-28T07:15:07.907Z,22.73
2018-01-28T07:17:10.552Z,22.23
2018-01-28T07:19:13.343Z,20.90
2018-01-28T07:21:16.008Z,20.80
2018-01-28T07:23:18.650Z,22.87
2018-01-28T07:25:22.118Z,23.57
2018-01-28T07:27:24.784Z,21.50
2018-01-28T07:29:27.429Z,21.90
2018-01-28T07:31:30.114Z,22.53
2018-01-28T07:33:32.775Z,21.30
2018-01-28T07:35:35.430Z,21.87
2018-01-28T07:37:38.863Z,23.00
2018-01-28T07:39:41.632Z,23.43
2018-01-28T07:41:44.281Z,24.03
2018-01-28T07:43:47.722Z,25.80
2018-01-28T07:45:50.415Z,22.77
2018-01-28T07:47:53.119Z,25.10
2018-01-28T07:49:56.556Z,23.40
2018-01-28T07:51:59.204Z,23.77
2018-01-28T07:54:02.656Z,25.67
2018-01-28T07:56:05.410Z,25.57
2018-01-28T07:58:08.223Z,25.37
2018-01-28T08:00:10.910Z,26.00
2018-01-28T08:02:13.559Z,26.60
2018-01-28T08:04:16.276Z,25.57
2018-01-28T08:06:19.742Z,25.40
2018-01-28T08:08:23.045Z,27.30
2018-01-28T08:10:27.676Z,28.27
2018-01-28T08:12:32.097Z,28.33
2018-01-28T08:14:37.554Z,27.43
2018-01-28T08:16:40.251Z,26.43
2018-01-28T08:18:43.064Z,25.53
2018-01-28T08:20:45.742Z,26.07
2018-01-28T08:22:48.406Z,25.30
2018-01-28T08:24:58.958Z,25.73
2018-01-28T08:27:06.564Z,29.47
2018-01-28T08:29:24.110Z,28.00
2018-01-28T08:31:26.959Z,26.13
2018-01-28T08:33:30.387Z,25.80
2018-01-28T08:35:33.044Z,27.27
2018-01-28T08:37:36.809Z,24.97
2018-01-28T08:39:39.494Z,25.43
2018-01-28T08:41:42.875Z,25.90
2018-01-28T08:43:45.544Z,25.60
2018-01-28T08:45:48.199Z,26.00
2018-01-28T08:47:51.630Z,24.57
2018-01-28T08:49:54.834Z,25.53
2018-01-28T08:51:57.522Z,24.83
2018-01-28T08:54:00.397Z,24.70
2018-01-28T08:56:03.072Z,22.50
2018-01-28T08:58:05.755Z,23.77
2018-01-28T09:00:08.434Z,23.27
2018-01-28T09:02:11.101Z,21.93
2018-01-28T09:04:13.853Z,23.00
2018-01-28T09:06:19.589Z,22.83
2018-01-28T09:08:22.305Z,22.67
2018-01-28T09:10:24.962Z,21.10
2018-01-28T09:12:27.734Z,21.63
2018-01-28T09:14:30.395Z,20.00
2018-01-28T09:16:33.074Z,20.43
2018-01-28T09:18:35.757Z,21.57
2018-01-28T09:20:38.421Z,20.30
2018-01-28T09:22:43.420Z,19.10
2018-01-28T09:24:46.123Z,19.20
2018-01-28T09:26:49.568Z,19.07
2018-01-28T09:28:52.622Z,20.40
2018-01-28T09:30:55.300Z,19.90
2018-01-28T09:32:58.438Z,19.70
2018-01-28T09:35:01.104Z,20.27
2018-01-28T09:37:04.043Z,20.97
2018-01-28T09:39:06.941Z,20.10
2018-01-28T09:41:09.700Z,21.07
2018-01-28T09:43:12.377Z,19.70
2018-01-28T09:45:15.157Z,19.80
2018-01-28T09:47:17.850Z,20.70
2018-01-28T09:49:20.530Z,21.43
2018-01-28T09:51:23.418Z,20.20
2018-01-28T09:53:27.203Z,20.30
2018-01-28T09:55:29.866Z,18.50
2018-01-28T09:57:32.561Z,20.00
2018-01-28T09:59:35.235Z,19.97
2018-01-28T10:01:37.884Z,18.50
2018-01-28T10:03:40.595Z,20.27
2018-01-28T10:05:43.256Z,19.13
2018-01-28T10:07:45.926Z,19.23
2018-01-28T10:09:48.589Z,17.97
2018-01-28T10:11:51.284Z,19.33
2018-01-28T10:13:54.036Z,20.60
2018-01-28T10:15:57.461Z,20.77
2018-01-28T10:18:00.153Z,19.10
2018-01-28T10:20:02.827Z,20.50
2018-01-28T10:22:05.479Z,19.30
2018-01-28T10:24:08.253Z,18.53
2018-01-28T10:26:10.937Z,19.00
2018-01-28T10:28:13.606Z,19.23
2018-01-28T10:30:16.294Z,19.90
2018-01-28T10:32:18.952Z,19.67
2018-01-28T10:34:21.620Z,19.87
2018-01-28T10:36:25.040Z,20.60
2018-01-28T10:38:27.956Z,18.80
2018-01-28T10:40:30.647Z,18.13
2018-01-28T10:42:33.294Z,18.30
2018-01-28T10:44:35.970Z,18.23
2018-01-28T10:46:38.673Z,17.30
2018-01-28T10:48:41.419Z,17.57
2018-01-28T10:50:44.064Z,17.67
2018-01-28T10:52:46.854Z,17.93
2018-01-28T10:54:49.557Z,17.10
2018-01-28T10:56:52.326Z,15.17
2018-01-28T10:58:54.977Z,16.90
2018-01-28T11:00:57.630Z,16.67
2018-01-28T11:03:01.203Z,15.87
2018-01-28T11:05:03.939Z,18.20
2018-01-28T11:07:06.723Z,16.17
2018-01-28T11:09:09.360Z,15.90
2018-01-28T11:11:12.826Z,15.73
2018-01-28T11:13:16.390Z,14.83
2018-01-28T11:15:19.066Z,14.33
2018-01-28T11:17:21.739Z,15.00
2018-01-28T11:19:24.424Z,14.97
2018-01-28T11:21:27.103Z,14.70
2018-01-28T11:23:29.868Z,13.40
2018-01-28T11:25:32.547Z,13.80
2018-01-28T11:27:35.313Z,13.87
2018-01-28T11:29:37.989Z,13.93
2018-01-28T11:31:40.633Z,12.90
2018-01-28T11:33:44.061Z,13.60
2018-01-28T11:35:46.765Z,13.00
2018-01-28T11:37:49.431Z,12.80
2018-01-28T11:39:52.094Z,13.77
2018-01-28T11:41:54.761Z,13.80
2018-01-28T11:43:57.416Z,14.23
2018-01-28T11:46:00.945Z,12.23
2018-01-28T11:48:03.669Z,11.70
2018-01-28T11:50:06.325Z,12.57
2018-01-28T11:52:08.976Z,12.27
2018-01-28T11:54:11.666Z,11.30
2018-01-28T11:56:14.330Z,12.50
2018-01-28T11:58:17.022Z,12.00
2018-01-28T12:00:19.753Z,10.90
2018-01-28T12:02:23.938Z,13.40
2018-01-28T12:04:26.672Z,12.13
2018-01-28T12:06:30.470Z,12.50
2018-01-28T12:08:34.196Z,10.90
2018-01-28T12:10:37.053Z,11.93
2018-01-28T12:12:39.869Z,13.20
2018-01-28T12:14:42.539Z,11.30
2018-01-28T12:16:45.362Z,11.33
2018-01-28T12:18:48.060Z,11.17
2018-01-28T12:20:50.936Z,10.63
2018-01-28T12:22:54.329Z,11.70
2018-01-28T12:24:57.252Z,11.50
2018-01-28T12:27:00.113Z,11.27
2018-01-28T12:29:02.790Z,11.57
2018-01-28T12:31:05.460Z,11.63
2018-01-28T12:33:08.290Z,10.70
2018-01-28T12:35:11.770Z,12.10
2018-01-28T12:37:14.451Z,12.17
2018-01-28T12:39:17.374Z,11.53
2018-01-28T12:41:20.046Z,10.13
2018-01-28T12:43:22.714Z,11.80
2018-01-28T12:45:25.514Z,11.30
2018-01-28T12:47:28.165Z,11.43
2018-01-28T12:49:30.864Z,10.80
2018-01-28T12:51:33.678Z,11.23
2018-01-28T12:53:36.359Z,11.20
2018-01-28T12:55:39.059Z,9.77
2018-01-28T12:57:42.521Z,10.17
2018-01-28T12:59:45.166Z,9.50
2018-01-28T13:01:47.862Z,10.90
2018-01-28T13:03:50.527Z,9.63
2018-01-28T13:05:53.185Z,9.50
2018-01-28T13:07:55.834Z,9.70
2018-01-28T13:09:59.256Z,9.60
2018-01-28T13:12:01.920Z,10.23
2018-01-28T13:14:04.638Z,8.67
2018-01-28T13:16:07.324Z,9.50
2018-01-28T13:18:10.270Z,8.63
2018-01-28T13:20:12.914Z,8.63
2018-01-28T13:22:16.355Z,8.90
2018-01-28T13:24:19.003Z,9.00
2018-01-28T13:26:21.653Z,8.10
2018-01-28T13:28:24.323Z,8.07
2018-01-28T13:30:26.960Z,8.20
2018-01-28T13:32:31.180Z,7.73
2018-01-28T13:34:34.856Z,8.70
2018-01-28T13:36:37.523Z,8.17
2018-01-28T13:38:40.203Z,7.80
2018-01-28T13:40:42.883Z,7.53
2018-01-28T13:42:45.560Z,7.23
2018-01-28T13:44:48.245Z,7.67
2018-01-28T13:46:50.902Z,8.10
2018-01-28T13:48:53.573Z,8.27
2018-01-28T13:50:56.586Z,7.90
2018-01-28T13:52:59.232Z,7.77
2018-01-28T13:55:02.662Z,7.03
2018-01-28T13:57:05.354Z,6.30
2018-01-28T13:59:08.017Z,7.50
2018-01-28T14:01:10.705Z,7.03
2018-01-28T14:03:13.365Z,7.13
2018-01-28T14:05:16.027Z,7.50
2018-01-28T14:07:18.730Z,7.00
2018-01-28T14:09:21.384Z,6.43
2018-01-28T14:11:24.052Z,7.10
2018-01-28T14:13:26.705Z,6.33
2018-01-28T14:15:30.150Z,6.93
2018-01-28T14:17:33.027Z,6.40
2018-01-28T14:19:35.685Z,6.07
2018-01-28T14:21:38.363Z,6.20
2018-01-28T14:23:41.039Z,6.30
2018-01-28T14:25:43.703Z,6.63
2018-01-28T14:27:46.399Z,6.57
2018-01-28T14:29:49.060Z,5.93
2018-01-28T14:31:51.729Z,6.20
2018-01-28T14:33:54.527Z,6.47
2018-01-28T14:35:57.196Z,5.83
2018-01-28T14:37:59.839Z,6.40
2018-01-28T14:40:03.437Z,6.80
2018-01-28T14:42:06.857Z,7.17
2018-01-28T14:44:09.512Z,6.23
2018-01-28T14:46:12.952Z,7.40
2018-01-28T14:48:15.625Z,6.90
2018-01-28T14:50:18.304Z,7.20
2018-01-28T14:52:20.944Z,6.30
2018-01-28T14:54:23.608Z,5.73
2018-01-28T14:56:27.147Z,6.77
2018-01-28T14:58:29.902Z,7.43
2018-01-28T15:00:32.554Z,6.50
2018-01-28T15:02:35.980Z,7.23
2018-01-28T15:04:38.758Z,6.03
2018-01-28T15:06:41.412Z,6.13
2018-01-28T15:08:44.111Z,6.00
2018-01-28T15:10:46.781Z,6.33
2018-01-28T15:12:49.458Z,7.47
2018-01-28T15:14:52.158Z,5.40
2018-01-28T15:16:54.857Z,6.43
2018-01-28T15:18:57.509Z,6.13
2018-01-28T15:21:00.391Z,5.87
2018-01-28T15:23:03.040Z,7.07
2018-01-28T15:25:05.835Z,6.70
2018-01-28T15:27:08.512Z,6.57
2018-01-28T15:29:11.168Z,6.23
2018-01-28T15:31:14.165Z,6.33
2018-01-28T15:33:16.866Z,6.30
2018-01-28T15:35:19.529Z,7.43
2018-01-28T15:37:22.216Z,6.90
2018-01-28T15:39:24.892Z,6.20
2018-01-28T15:41:27.554Z,7.57
2018-01-28T15:43:30.571Z,7.00
2018-01-28T15:45:33.427Z,7.27
2018-01-28T15:47:36.114Z,6.57
2018-01-28T15:49:38.788Z,7.40
2018-01-28T15:51:41.444Z,8.17
2018-01-28T15:53:44.145Z,8.07
2018-01-28T15:55:46.822Z,6.17
2018-01-28T15:57:49.558Z,11.73
2018-01-28T15:59:52.266Z,13.20
2018-01-28T16:01:54.932Z,15.10
2018-01-28T16:03:57.867Z,9.17
2018-01-28T16:06:01.391Z,9.30
2018-01-28T16:08:04.054Z,7.60
2018-01-28T16:10:06.868Z,29.67
2018-01-28T16:12:10.136Z,20.70
2018-01-28T16:14:12.815Z,12.60
2018-01-28T16:16:15.478Z,11.97
2018-01-28T16:18:18.136Z,9.70
2018-01-28T16:20:21.614Z,10.10
2018-01-28T16:22:24.266Z,15.83
2018-01-28T16:24:26.957Z,10.83
2018-01-28T16:26:29.743Z,10.80
2018-01-28T16:28:33.229Z,9.83
2018-01-28T16:30:35.908Z,10.03
2018-01-28T16:32:38.574Z,11.00
2018-01-28T16:34:41.316Z,12.33
2018-01-28T16:36:44.005Z,10.97
2018-01-28T16:38:46.679Z,9.93
2018-01-28T16:40:49.346Z,10.23
2018-01-28T16:42:52.131Z,10.73
2018-01-28T16:44:54.805Z,10.77
2018-01-28T16:46:57.490Z,10.60
2018-01-28T16:49:00.161Z,9.70
2018-01-28T16:51:02.931Z,9.80
2018-01-28T16:53:05.642Z,11.43
2018-01-28T16:55:08.322Z,16.33
2018-01-28T16:57:10.994Z,23.40
2018-01-28T16:59:13.674Z,10.83
2018-01-28T17:01:16.348Z,12.40
2018-01-28T17:03:19.005Z,12.17
2018-01-28T17:05:21.698Z,10.73
2018-01-28T17:07:24.361Z,14.23
2018-01-28T17:09:27.117Z,17.30
2018-01-28T17:11:30.062Z,15.70
2018-01-28T17:13:32.751Z,12.40
2018-01-28T17:15:36.206Z,13.57
2018-01-28T17:17:38.916Z,12.87
2018-01-28T17:19:42.450Z,11.83
2018-01-28T17:21:45.232Z,14.60
2018-01-28T17:23:47.882Z,20.30
2018-01-28T17:25:51.397Z,16.50
2018-01-28T17:27:54.240Z,15.33
2018-01-28T17:29:56.936Z,14.57
2018-01-28T17:32:00.395Z,12.73
2018-01-28T17:34:03.919Z,13.17
2018-01-28T17:36:07.350Z,15.57
2018-01-28T17:38:13.330Z,14.50
2018-01-28T17:40:16.060Z,14.40
2018-01-28T17:42:18.734Z,12.93
2018-01-28T17:44:21.409Z,15.67
2018-01-28T17:46:24.065Z,13.40
2018-01-28T17:48:27.524Z,16.30
2018-01-28T17:50:30.228Z,13.73
2018-01-28T17:52:32.902Z,14.73
2018-01-28T17:54:35.794Z,16.20
2018-01-28T17:56:39.267Z,14.10
2018-01-28T17:58:43.465Z,15.50
2018-01-28T18:00:46.109Z,15.00
2018-01-28T18:02:48.885Z,14.80
2018-01-28T18:04:51.665Z,14.30
2018-01-28T18:06:54.379Z,16.80
2018-01-28T18:09:08.094Z,18.73
2018-01-28T18:11:10.928Z,13.20
2018-01-28T18:13:13.647Z,12.97
2018-01-28T18:15:16.332Z,29.83
2018-01-28T18:17:19.000Z,19.30
2018-01-28T18:19:21.726Z,14.70
2018-01-28T18:21:24.367Z,14.70
2018-01-28T18:23:27.034Z,13.17
2018-01-28T18:25:29.736Z,12.90
2018-01-28T18:27:32.399Z,13.10
2018-01-28T18:29:35.071Z,13.30
2018-01-28T18:31:37.740Z,16.97
2018-01-28T18:33:41.951Z,13.03
2018-01-28T18:35:44.645Z,11.83
2018-01-28T18:37:47.315Z,13.30
2018-01-28T18:39:49.979Z,13.27
2018-01-28T18:41:53.287Z,13.60
2018-01-28T18:43:55.942Z,12.27
2018-01-28T18:45:58.596Z,11.33
2018-01-28T18:48:01.272Z,10.90
2018-01-28T18:50:04.746Z,11.20
2018-01-28T18:52:08.190Z,10.10
2018-01-28T18:54:10.897Z,10.97
2018-01-28T18:56:13.636Z,10.90
2018-01-28T18:58:16.283Z,12.53
2018-01-28T19:00:19.762Z,11.30
2018-01-28T19:02:22.492Z,11.57
2018-01-28T19:04:25.151Z,10.90
2018-01-28T19:06:27.859Z,11.53
2018-01-28T19:08:30.512Z,12.60
2018-01-28T19:10:33.183Z,12.83
2018-01-28T19:12:35.865Z,11.13
2018-01-28T19:14:38.524Z,10.47
2018-01-28T19:16:43.364Z,9.50
2018-01-28T19:18:46.100Z,10.90
2018-01-28T19:20:48.759Z,9.77
2018-01-28T19:22:51.457Z,9.90
2018-01-28T19:24:55.030Z,10.13
2018-01-28T19:26:57.823Z,9.83
2018-01-28T19:29:00.613Z,18.20
2018-01-28T19:31:04.250Z,14.43
2018-01-28T19:33:07.393Z,10.13
2018-01-28T19:35:10.067Z,10.60
2018-01-28T19:37:12.732Z,7.60
2018-01-28T19:39:15.404Z,7.57
2018-01-28T19:41:18.128Z,7.97
2018-01-28T19:43:23.863Z,7.87
2018-01-28T19:45:27.306Z,7.80
2018-01-28T19:47:30.088Z,7.40
2018-01-28T19:49:32.869Z,7.60
2018-01-28T19:51:35.754Z,7.63
2018-01-28T19:53:38.453Z,7.20
2018-01-28T19:55:41.147Z,7.70
2018-01-28T19:57:44.630Z,8.27
2018-01-28T19:59:48.754Z,7.43
2018-01-28T20:01:52.344Z,7.40
2018-01-28T20:03:55.871Z,8.47
2018-01-28T20:05:58.590Z,7.30
2018-01-28T20:08:01.309Z,8.37
2018-01-28T20:10:04.730Z,7.83
2018-01-28T20:12:07.538Z,7.33
2018-01-28T20:14:10.232Z,7.40
2018-01-28T20:16:13.677Z,7.13
2018-01-28T20:18:16.449Z,7.17
2018-01-28T20:20:19.123Z,6.70
2018-01-28T20:22:21.799Z,6.33
2018-01-28T20:24:24.497Z,6.60
2018-01-28T20:26:27.267Z,6.77
2018-01-28T20:28:29.926Z,6.60
2018-01-28T20:30:32.719Z,7.07
2018-01-28T20:32:35.495Z,7.37
2018-01-28T20:34:38.200Z,6.40
2018-01-28T20:36:40.913Z,6.97
2018-01-28T20:38:44.337Z,7.00
2018-01-28T20:40:47.039Z,7.40
2018-01-28T20:42:49.733Z,6.50
2018-01-28T20:44:52.409Z,7.20
2018-01-28T20:46:55.432Z,7.10
2018-01-28T20:48:58.264Z,8.10
2018-01-28T20:51:01.022Z,8.00
2018-01-28T20:53:03.728Z,7.60
2018-01-28T20:55:06.397Z,7.30
2018-01-28T20:57:09.175Z,7.40
2018-01-28T20:59:11.838Z,8.23
2018-01-28T21:01:14.492Z,7.60
2018-01-28T21:03:17.172Z,8.00
2018-01-28T21:05:20.269Z,8.27
2018-01-28T21:07:23.051Z,9.50
2018-01-28T21:09:26.445Z,9.40
2018-01-28T21:11:29.191Z,9.50
2018-01-28T21:13:31.935Z,8.80
2018-01-28T21:15:35.392Z,8.20
2018-01-28T21:17:38.308Z,8.60
2018-01-28T21:19:40.972Z,8.30
2018-01-28T21:21:44.280Z,9.37
2018-01-28T21:23:47.414Z,8.80
2018-01-28T21:25:50.190Z,8.60
2018-01-28T21:27:53.451Z,7.30
2018-01-28T21:29:57.283Z,7.10
2018-01-28T21:31:59.968Z,15.47
2018-01-28T21:34:02.752Z,17.53
2018-01-28T21:36:05.482Z,24.53
2018-01-28T21:38:09.017Z,17.93
2018-01-28T21:40:11.788Z,16.07
2018-01-28T21:42:14.630Z,16.93
2018-01-28T21:44:17.293Z,11.43
2018-01-28T21:46:20.263Z,12.20
2018-01-28T21:48:22.921Z,12.10
2018-01-28T21:50:25.667Z,11.30
2018-01-28T21:52:28.362Z,17.43
2018-01-28T21:54:31.103Z,9.53
2018-01-28T21:56:34.592Z,9.40
2018-01-28T21:58:37.370Z,13.10
2018-01-28T22:00:40.816Z,10.80
2018-01-28T22:02:43.511Z,8.30
2018-01-28T22:04:46.690Z,9.10
2018-01-28T22:06:49.571Z,11.30
2018-01-28T22:08:53.026Z,10.33
2018-01-28T22:10:56.585Z,8.80
2018-01-28T22:12:59.252Z,12.73
2018-01-28T22:15:01.935Z,9.87
2018-01-28T22:17:05.837Z,7.47
2018-01-28T22:19:08.543Z,11.40
2018-01-28T22:21:12.175Z,10.67
2018-01-28T22:23:14.951Z,9.10
2018-01-28T22:25:17.841Z,16.23
2018-01-28T22:27:20.531Z,10.33
2018-01-28T22:29:23.182Z,8.60
2018-01-28T22:31:26.276Z,9.83
2018-01-28T22:33:28.972Z,9.03
2018-01-28T22:35:31.633Z,8.40
2018-01-28T22:37:34.508Z,9.67
2018-01-28T22:39:37.596Z,6.13
2018-01-28T22:41:40.735Z,7.20
2018-01-28T22:43:43.414Z,8.40
2018-01-28T22:45:46.061Z,5.47
2018-01-28T22:47:48.729Z,7.20
2018-01-28T22:49:51.489Z,5.80
2018-01-28T22:51:54.216Z,6.97
2018-01-28T22:53:56.933Z,6.70
2018-01-28T22:55:59.588Z,6.63
2018-01-28T22:58:03.110Z,5.57
2018-01-28T23:00:05.838Z,6.37
2018-01-28T23:02:08.509Z,9.40
2018-01-28T23:04:13.395Z,7.10
2018-01-28T23:06:16.063Z,5.00
2018-01-28T23:08:18.696Z,5.27
2018-01-28T23:10:21.416Z,6.60
2018-01-28T23:12:24.072Z,9.60
2018-01-28T23:14:27.490Z,8.07
2018-01-28T23:16:30.164Z,7.43
2018-01-28T23:18:32.806Z,8.40
2018-01-28T23:20:36.249Z,9.10
2018-01-28T23:22:38.910Z,9.30
2018-01-28T23:24:41.606Z,8.40
2018-01-28T23:26:44.365Z,6.80
2018-01-28T23:28:47.022Z,7.57
2018-01-28T23:30:50.505Z,8.20
2018-01-28T23:32:53.928Z,8.67
2018-01-28T23:34:56.587Z,7.13
2018-01-28T23:37:00.059Z,11.10
2018-01-28T23:39:02.724Z,11.73
2018-01-28T23:41:05.387Z,17.27
2018-01-28T23:43:08.851Z,10.07
2018-01-28T23:45:11.501Z,11.97
2018-01-28T23:47:14.932Z,8.13
2018-01-28T23:49:17.618Z,7.37
2018-01-28T23:51:20.264Z,6.57
2018-01-28T23:53:22.946Z,6.40
2018-01-28T23:55:25.591Z,7.10
2018-01-28T23:57:29.026Z,7.10
2018-01-28T23:59:31.702Z,7.33
